createdAt,value
2022-12-22T00:02:06.937Z,7.70
2022-12-22T00:05:12.170Z,7.70
2022-12-22T00:08:16.148Z,7.70
2022-12-22T00:11:20.339Z,7.70
2022-12-22T00:14:24.507Z,7.70
2022-12-22T00:17:42.287Z,7.80
2022-12-22T00:20:46.480Z,7.80
2022-12-22T00:23:51.019Z,7.90
2022-12-22T00:26:55.552Z,7.90
2022-12-22T00:30:01.528Z,7.90
2022-12-22T00:33:06.499Z,7.90
2022-12-22T00:36:10.477Z,7.90
2022-12-22T00:39:14.525Z,7.80
2022-12-22T00:45:23.608Z,7.90
2022-12-22T00:48:41.292Z,7.90
2022-12-22T00:51:45.995Z,7.90
2022-12-22T00:54:49.978Z,7.90
2022-12-22T00:57:54.599Z,7.90
2022-12-22T01:00:58.872Z,7.80
2022-12-22T01:04:03.136Z,7.90
2022-12-22T01:10:11.824Z,7.90
2022-12-22T01:13:16.083Z,7.90
2022-12-22T01:16:20.849Z,7.90
2022-12-22T01:19:24.869Z,7.90
2022-12-22T01:22:31.478Z,7.90
2022-12-22T01:25:38.410Z,7.90
2022-12-22T01:28:42.343Z,7.90
2022-12-22T01:31:48.130Z,7.90
2022-12-22T01:34:52.390Z,7.90
2022-12-22T01:37:56.447Z,7.90
2022-12-22T01:41:00.442Z,8.00
2022-12-22T01:44:05.229Z,8.00
2022-12-22T01:47:09.277Z,8.00
2022-12-22T01:50:13.233Z,8.10
2022-12-22T01:53:19.943Z,8.10
2022-12-22T01:56:25.086Z,8.10
2022-12-22T01:59:30.165Z,8.10
2022-12-22T02:02:37.237Z,8.10
2022-12-22T02:05:41.635Z,8.10
2022-12-22T02:08:51.677Z,8.10
2022-12-22T02:12:21.546Z,8.10
2022-12-22T02:15:44.528Z,8.10
2022-12-22T02:18:59.383Z,8.10
2022-12-22T02:22:15.524Z,8.10
2022-12-22T02:25:32.412Z,8.10
2022-12-22T02:28:36.919Z,8.10
2022-12-22T02:31:40.990Z,8.10
2022-12-22T02:34:44.992Z,8.10
2022-12-22T02:38:07.689Z,8.10
2022-12-22T02:41:25.100Z,8.10
2022-12-22T02:44:46.456Z,8.10
2022-12-22T02:48:05.256Z,8.10
2022-12-22T02:51:17.724Z,8.20
2022-12-22T02:54:23.626Z,8.20
2022-12-22T02:57:27.925Z,8.20
2022-12-22T03:00:32.308Z,8.20
2022-12-22T03:03:36.523Z,8.20
2022-12-22T03:06:40.862Z,8.10
2022-12-22T03:09:44.973Z,8.10
2022-12-22T03:12:49.096Z,8.10
2022-12-22T03:15:53.420Z,8.10
2022-12-22T03:18:57.610Z,8.10
2022-12-22T03:22:01.651Z,8.10
2022-12-22T03:25:05.757Z,8.10
2022-12-22T03:27:51.244Z,8.10
2022-12-22T03:30:37.460Z,8.10
2022-12-22T03:33:23.135Z,8.10
2022-12-22T03:36:09.171Z,8.10
2022-12-22T03:38:55.030Z,8.00
2022-12-22T03:41:59.164Z,8.10
2022-12-22T03:45:03.171Z,8.10
2022-12-22T03:47:48.912Z,8.00
2022-12-22T03:50:34.521Z,8.00
2022-12-22T03:53:20.005Z,8.00
2022-12-22T03:56:08.014Z,8.10
2022-12-22T03:58:54.392Z,8.10
2022-12-22T04:01:44.829Z,8.10
2022-12-22T04:04:30.498Z,8.00
2022-12-22T04:07:16.203Z,8.10
2022-12-22T04:10:20.892Z,8.10
2022-12-22T04:13:06.300Z,8.10
2022-12-22T04:15:51.855Z,8.10
2022-12-22T04:18:37.410Z,8.10
2022-12-22T04:21:23.475Z,8.10
2022-12-22T04:24:10.960Z,8.20
2022-12-22T04:26:56.878Z,8.20
2022-12-22T04:29:42.520Z,8.20
2022-12-22T04:32:28.006Z,8.20
2022-12-22T04:35:13.837Z,8.20
2022-12-22T04:37:59.200Z,8.20
2022-12-22T04:40:44.758Z,8.20
2022-12-22T04:43:30.479Z,8.10
2022-12-22T04:46:16.033Z,8.20
2022-12-22T04:49:01.777Z,8.10
2022-12-22T04:51:47.268Z,8.10
2022-12-22T04:54:32.976Z,8.10
2022-12-22T04:57:19.444Z,8.10
2022-12-22T05:00:06.250Z,8.20
2022-12-22T05:02:53.415Z,8.20
2022-12-22T05:05:39.339Z,8.20
2022-12-22T05:08:24.939Z,8.10
2022-12-22T05:11:11.102Z,8.10
2022-12-22T05:13:59.735Z,8.10
2022-12-22T05:16:49.296Z,8.20
2022-12-22T05:19:34.755Z,8.20
2022-12-22T05:22:20.492Z,8.20
2022-12-22T05:25:06.680Z,8.20
2022-12-22T05:27:52.537Z,8.20
2022-12-22T05:30:41.025Z,8.20
2022-12-22T05:33:26.584Z,8.20
2022-12-22T05:36:12.201Z,8.20
2022-12-22T05:38:57.727Z,8.30
2022-12-22T05:41:43.238Z,8.30
2022-12-22T05:44:28.921Z,8.30
2022-12-22T05:47:14.462Z,8.30
2022-12-22T05:50:00.008Z,8.30
2022-12-22T05:52:46.384Z,8.30
2022-12-22T05:55:32.160Z,8.20
2022-12-22T05:58:17.918Z,8.30
2022-12-22T06:01:03.853Z,8.30
2022-12-22T06:03:53.245Z,8.30
2022-12-22T06:06:41.720Z,8.30
2022-12-22T06:09:27.410Z,8.30
2022-12-22T06:12:13.025Z,8.40
2022-12-22T06:17:45.542Z,8.40
2022-12-22T06:20:31.317Z,8.30
2022-12-22T06:23:17.138Z,8.30
2022-12-22T06:26:03.066Z,8.40
2022-12-22T06:28:49.036Z,8.30
2022-12-22T06:31:34.991Z,8.40
2022-12-22T06:34:21.343Z,8.30
2022-12-22T06:37:07.036Z,8.30
2022-12-22T06:39:53.273Z,8.30
2022-12-22T06:43:02.172Z,8.40
2022-12-22T06:45:51.566Z,8.30
2022-12-22T06:48:37.227Z,8.30
2022-12-22T06:51:23.067Z,8.30
2022-12-22T06:54:10.676Z,8.50
2022-12-22T06:56:57.357Z,8.30
2022-12-22T06:59:43.205Z,8.30
2022-12-22T07:02:29.002Z,8.40
2022-12-22T07:05:15.794Z,8.40
2022-12-22T07:08:08.013Z,8.40
2022-12-22T07:11:00.430Z,8.40
2022-12-22T07:13:46.207Z,8.40
2022-12-22T07:16:32.059Z,8.40
2022-12-22T07:19:17.983Z,8.40
2022-12-22T07:22:03.967Z,8.40
2022-12-22T07:24:50.178Z,8.50
2022-12-22T07:27:35.660Z,8.50
2022-12-22T07:30:20.985Z,8.50
2022-12-22T07:33:06.799Z,8.50
2022-12-22T07:36:06.346Z,8.50
2022-12-22T07:38:52.219Z,8.50
2022-12-22T07:41:57.063Z,8.60
2022-12-22T07:44:42.449Z,8.60
2022-12-22T07:47:33.360Z,8.70
2022-12-22T07:50:32.537Z,8.70
2022-12-22T07:53:17.839Z,8.70
2022-12-22T07:56:05.800Z,8.80
2022-12-22T07:58:51.425Z,8.80
2022-12-22T08:01:37.298Z,8.80
2022-12-22T08:04:24.429Z,8.80
2022-12-22T08:07:10.435Z,8.80
2022-12-22T08:09:56.142Z,8.80
2022-12-22T08:12:42.275Z,8.80
2022-12-22T08:15:28.033Z,8.80
2022-12-22T08:18:13.656Z,8.90
2022-12-22T08:20:59.285Z,8.90
2022-12-22T08:23:45.438Z,8.90
2022-12-22T08:26:39.456Z,8.90
2022-12-22T08:29:36.552Z,8.90
2022-12-22T08:32:22.075Z,9.00
2022-12-22T08:35:09.724Z,9.00
2022-12-22T08:37:55.601Z,9.00
2022-12-22T08:40:44.874Z,9.00
2022-12-22T08:43:31.762Z,9.00
2022-12-22T08:46:17.344Z,9.00
2022-12-22T08:49:03.181Z,9.00
2022-12-22T08:51:49.027Z,9.00
2022-12-22T08:54:34.656Z,9.00
2022-12-22T08:57:20.002Z,9.10
2022-12-22T09:00:08.622Z,9.00
2022-12-22T09:02:54.496Z,9.10
2022-12-22T09:05:41.999Z,9.10
2022-12-22T09:08:30.893Z,9.10
2022-12-22T09:11:17.123Z,9.10
2022-12-22T09:16:48.806Z,9.20
2022-12-22T09:19:34.533Z,9.20
2022-12-22T09:22:26.765Z,9.20
2022-12-22T09:25:14.682Z,9.20
2022-12-22T09:28:01.345Z,9.20
2022-12-22T09:30:51.862Z,9.20
2022-12-22T09:33:38.819Z,9.20
2022-12-22T09:36:30.550Z,9.30
2022-12-22T09:39:16.962Z,9.30
2022-12-22T09:42:02.726Z,9.40
2022-12-22T09:44:51.964Z,9.30
2022-12-22T09:47:40.189Z,9.40
2022-12-22T09:50:26.850Z,9.40
2022-12-22T09:53:22.167Z,9.40
2022-12-22T09:56:16.208Z,9.40
2022-12-22T09:59:01.567Z,9.50
2022-12-22T10:02:20.029Z,9.60
2022-12-22T10:05:26.791Z,9.60
2022-12-22T10:08:18.713Z,9.70
2022-12-22T10:11:04.725Z,9.70
2022-12-22T10:13:50.523Z,9.70
2022-12-22T10:16:36.557Z,9.80
2022-12-22T10:19:22.212Z,9.80
2022-12-22T10:22:30.572Z,9.90
2022-12-22T10:26:26.425Z,9.90
2022-12-22T10:29:06.457Z,9.90
2022-12-22T10:32:04.648Z,9.90
2022-12-22T10:35:06.576Z,9.90
2022-12-22T10:37:52.048Z,9.90
2022-12-22T10:40:43.546Z,9.90
2022-12-22T10:43:29.717Z,10.00
2022-12-22T10:46:16.095Z,10.00
2022-12-22T10:49:15.871Z,10.00
2022-12-22T10:52:11.990Z,10.00
2022-12-22T10:55:18.003Z,10.00
2022-12-22T10:58:13.708Z,10.00
2022-12-22T11:01:04.391Z,10.00
2022-12-22T11:03:50.114Z,10.00
2022-12-22T11:06:36.218Z,10.00
2022-12-22T11:09:33.912Z,10.00
2022-12-22T11:12:36.058Z,10.00
2022-12-22T11:15:38.840Z,10.00
2022-12-22T11:18:55.811Z,10.00
2022-12-22T11:21:56.467Z,10.00
2022-12-22T11:25:20.341Z,10.00
2022-12-22T11:28:16.100Z,9.90
2022-12-22T11:31:26.751Z,9.90
2022-12-22T11:34:21.893Z,9.90
2022-12-22T11:37:22.811Z,10.00
2022-12-22T11:40:29.932Z,10.00
2022-12-22T11:44:01.969Z,10.00
2022-12-22T11:46:58.697Z,10.10
2022-12-22T11:51:02.141Z,10.10
2022-12-22T11:54:10.667Z,10.20
2022-12-22T11:57:22.403Z,10.20
2022-12-22T12:00:16.945Z,10.20
2022-12-22T12:03:21.154Z,10.30
2022-12-22T12:06:17.563Z,10.30
2022-12-22T12:09:25.849Z,10.30
2022-12-22T12:12:29.797Z,10.30
2022-12-22T12:15:28.004Z,10.30
2022-12-22T12:18:32.484Z,10.30
2022-12-22T12:21:29.688Z,10.30
2022-12-22T12:24:35.275Z,10.30
2022-12-22T12:27:35.829Z,10.30
2022-12-22T12:30:39.760Z,10.20
2022-12-22T12:33:36.432Z,10.20
2022-12-22T12:36:33.619Z,10.20
2022-12-22T12:39:34.092Z,10.20
2022-12-22T12:42:25.351Z,10.20
2022-12-22T12:45:47.255Z,10.20
2022-12-22T12:48:36.749Z,10.30
2022-12-22T12:51:48.805Z,9.80
2022-12-22T12:54:48.095Z,10.30
2022-12-22T12:57:49.276Z,10.30
2022-12-22T13:03:53.169Z,10.40
2022-12-22T13:06:51.284Z,10.40
2022-12-22T13:10:07.548Z,10.40
2022-12-22T13:12:54.896Z,10.40
2022-12-22T13:15:42.813Z,10.40
2022-12-22T13:18:34.335Z,10.40
2022-12-22T13:21:52.260Z,10.40
2022-12-22T13:24:47.048Z,10.40
2022-12-22T13:27:36.907Z,10.40
2022-12-22T13:30:23.031Z,10.40
2022-12-22T13:33:12.249Z,10.40
2022-12-22T13:35:59.577Z,10.40
2022-12-22T13:38:46.208Z,10.40
2022-12-22T13:41:33.774Z,10.40
2022-12-22T13:44:25.439Z,10.40
2022-12-22T13:47:15.446Z,10.40
2022-12-22T13:50:09.897Z,10.40
2022-12-22T13:52:57.762Z,10.50
2022-12-22T13:55:47.715Z,10.40
2022-12-22T13:58:39.209Z,10.40
2022-12-22T14:01:25.776Z,10.40
2022-12-22T14:04:15.119Z,10.50
2022-12-22T14:07:30.517Z,10.50
2022-12-22T14:10:25.401Z,10.50
2022-12-22T14:13:20.473Z,10.50
2022-12-22T14:16:07.896Z,10.50
2022-12-22T14:18:54.536Z,10.50
2022-12-22T14:21:41.316Z,10.50
2022-12-22T14:24:32.075Z,11.90
2022-12-22T14:27:35.691Z,10.50
2022-12-22T14:30:22.722Z,10.50
2022-12-22T14:33:37.989Z,10.50
2022-12-22T14:36:25.825Z,10.50
2022-12-22T14:39:22.315Z,10.50
2022-12-22T14:42:13.917Z,10.50
2022-12-22T14:45:00.235Z,10.50
2022-12-22T14:47:46.300Z,10.50
2022-12-22T14:50:31.807Z,10.50
2022-12-22T14:53:27.105Z,10.40
2022-12-22T14:56:14.835Z,10.40
2022-12-22T14:59:21.830Z,10.40
2022-12-22T15:02:25.816Z,10.20
2022-12-22T15:05:32.913Z,10.20
2022-12-22T15:08:41.592Z,10.10
2022-12-22T15:11:27.101Z,10.00
2022-12-22T15:14:18.666Z,10.00
2022-12-22T15:17:06.293Z,9.90
2022-12-22T15:19:57.773Z,9.90
2022-12-22T15:22:43.648Z,9.80
2022-12-22T15:25:29.454Z,9.80
2022-12-22T15:28:15.162Z,9.70
2022-12-22T15:31:02.530Z,9.70
2022-12-22T15:33:48.363Z,9.60
2022-12-22T15:36:33.939Z,9.60
2022-12-22T15:39:21.473Z,9.50
2022-12-22T15:42:08.942Z,9.50
2022-12-22T15:44:54.647Z,9.50
2022-12-22T15:47:46.297Z,9.40
2022-12-22T15:50:39.381Z,9.40
2022-12-22T15:53:25.338Z,9.30
2022-12-22T15:56:18.091Z,9.30
2022-12-22T15:59:04.772Z,9.20
2022-12-22T16:01:56.527Z,9.20
2022-12-22T16:04:44.394Z,9.10
2022-12-22T16:07:31.226Z,9.10
2022-12-22T16:10:29.654Z,9.10
2022-12-22T16:13:16.352Z,9.10
2022-12-22T16:16:02.142Z,9.10
2022-12-22T16:18:47.951Z,9.00
2022-12-22T16:21:33.628Z,8.90
2022-12-22T16:24:30.565Z,8.80
2022-12-22T16:27:18.444Z,8.80
2022-12-22T16:30:05.100Z,8.80
2022-12-22T16:32:54.191Z,8.70
2022-12-22T16:35:40.549Z,8.70
2022-12-22T16:38:26.023Z,8.70
2022-12-22T16:41:23.423Z,8.70
2022-12-22T16:44:09.797Z,8.70
2022-12-22T16:46:57.120Z,8.60
2022-12-22T16:49:45.059Z,8.60
2022-12-22T16:52:40.230Z,8.60
2022-12-22T16:55:26.158Z,8.60
2022-12-22T16:58:13.924Z,8.60
2022-12-22T17:00:59.915Z,8.60
2022-12-22T17:03:45.757Z,8.60
2022-12-22T17:06:31.961Z,8.60
2022-12-22T17:09:21.581Z,8.60
2022-12-22T17:12:08.811Z,8.50
2022-12-22T17:14:55.990Z,8.50
2022-12-22T17:17:42.551Z,8.50
2022-12-22T17:20:29.900Z,8.50
2022-12-22T17:23:40.855Z,8.40
2022-12-22T17:26:26.687Z,8.30
2022-12-22T17:29:18.107Z,8.20
2022-12-22T17:32:04.573Z,8.20
2022-12-22T17:34:50.376Z,8.20
2022-12-22T17:37:35.836Z,8.20
2022-12-22T17:40:27.460Z,8.20
2022-12-22T17:43:15.180Z,8.10
2022-12-22T17:46:01.096Z,8.10
2022-12-22T17:48:47.379Z,8.10
2022-12-22T17:51:33.373Z,8.00
2022-12-22T17:54:24.276Z,8.00
2022-12-22T17:57:24.740Z,8.10
2022-12-22T18:00:19.275Z,8.00
2022-12-22T18:03:05.088Z,8.00
2022-12-22T18:05:51.038Z,8.00
2022-12-22T18:08:36.588Z,8.00
2022-12-22T18:11:22.942Z,7.90
2022-12-22T18:14:14.293Z,7.90
2022-12-22T18:17:00.070Z,7.90
2022-12-22T18:19:45.515Z,8.00
2022-12-22T18:22:31.225Z,8.00
2022-12-22T18:25:29.468Z,7.90
2022-12-22T18:28:17.677Z,7.90
2022-12-22T18:31:05.695Z,7.90
2022-12-22T18:33:53.058Z,7.90
2022-12-22T18:36:40.190Z,7.80
2022-12-22T18:39:26.195Z,7.80
2022-12-22T18:42:23.030Z,7.80
2022-12-22T18:45:14.626Z,7.70
2022-12-22T18:48:00.047Z,7.70
2022-12-22T18:50:45.770Z,7.70
2022-12-22T18:53:32.246Z,7.70
2022-12-22T18:56:18.369Z,7.70
2022-12-22T18:59:31.191Z,7.70
2022-12-22T19:02:19.992Z,7.60
2022-12-22T19:05:18.276Z,7.60
2022-12-22T19:08:03.876Z,7.60
2022-12-22T19:10:56.114Z,7.60
2022-12-22T19:13:46.772Z,7.70
2022-12-22T19:16:33.612Z,7.60
2022-12-22T19:19:21.069Z,7.60
2022-12-22T19:22:06.412Z,7.70
2022-12-22T19:24:51.963Z,7.70
2022-12-22T19:27:38.051Z,7.70
2022-12-22T19:30:27.141Z,7.60
2022-12-22T19:33:29.562Z,7.60
2022-12-22T19:36:27.442Z,7.80
2022-12-22T19:39:13.168Z,7.70
2022-12-22T19:42:00.012Z,7.70
2022-12-22T19:44:46.241Z,7.80
2022-12-22T19:47:31.948Z,7.80
2022-12-22T19:50:20.528Z,7.80
2022-12-22T19:53:06.724Z,7.80
2022-12-22T19:55:54.919Z,7.80
2022-12-22T19:58:40.981Z,7.80
2022-12-22T20:01:27.104Z,7.50
2022-12-22T20:04:14.092Z,7.90
2022-12-22T20:06:59.815Z,7.90
2022-12-22T20:09:46.015Z,7.90
2022-12-22T20:12:39.170Z,7.90
2022-12-22T20:15:33.427Z,8.10
2022-12-22T20:18:23.312Z,8.10
2022-12-22T20:21:23.044Z,8.20
2022-12-22T20:24:14.078Z,8.20
2022-12-22T20:32:31.622Z,8.30
2022-12-22T20:35:18.512Z,8.40
2022-12-22T20:38:19.438Z,8.40
2022-12-22T20:41:08.396Z,8.40
2022-12-22T20:43:54.172Z,8.40
2022-12-22T20:46:40.301Z,8.30
2022-12-22T20:49:25.809Z,8.40
2022-12-22T20:52:18.970Z,8.50
2022-12-22T20:55:04.822Z,8.40
2022-12-22T20:57:51.228Z,8.50
2022-12-22T21:00:36.947Z,8.50
2022-12-22T21:03:23.966Z,8.50
2022-12-22T21:06:29.687Z,8.50
2022-12-22T21:09:16.118Z,8.50
2022-12-22T21:17:35.155Z,8.50
2022-12-22T21:20:26.353Z,8.50
2022-12-22T21:25:59.689Z,8.50
2022-12-22T21:28:46.489Z,8.50
2022-12-22T21:31:32.230Z,8.40
2022-12-22T21:34:17.970Z,8.30
2022-12-22T21:39:50.521Z,8.30
2022-12-22T21:45:27.928Z,8.30
2022-12-22T21:48:16.421Z,8.20
2022-12-22T21:51:02.137Z,8.30
2022-12-22T21:53:47.583Z,8.30
2022-12-22T21:56:33.120Z,8.20
2022-12-22T21:59:18.897Z,8.10
2022-12-22T22:02:13.773Z,8.10
2022-12-22T22:04:59.221Z,8.10
2022-12-22T22:07:44.827Z,8.10
2022-12-22T22:10:33.496Z,8.10
2022-12-22T22:13:19.025Z,8.10
2022-12-22T22:16:04.896Z,8.20
2022-12-22T22:18:50.950Z,8.20
2022-12-22T22:24:22.844Z,8.20
2022-12-22T22:27:08.341Z,8.10
2022-12-22T22:29:53.935Z,8.10
2022-12-22T22:32:39.268Z,8.10
2022-12-22T22:35:26.621Z,8.10
2022-12-22T22:38:13.883Z,8.10
2022-12-22T22:40:59.465Z,8.10
2022-12-22T22:43:45.002Z,8.20
2022-12-22T22:46:30.756Z,8.20
2022-12-22T22:49:16.314Z,8.20
2022-12-22T22:52:01.901Z,8.20
2022-12-22T22:57:33.348Z,8.20
2022-12-22T23:00:19.515Z,8.20
2022-12-22T23:05:51.285Z,8.10
2022-12-22T23:08:37.226Z,8.10
2022-12-22T23:14:10.989Z,8.20
2022-12-22T23:19:42.769Z,8.20
2022-12-22T23:22:30.511Z,8.20
2022-12-22T23:25:16.157Z,8.20
2022-12-22T23:28:01.682Z,8.20
2022-12-22T23:30:49.780Z,8.10
2022-12-22T23:33:35.309Z,8.10
2022-12-22T23:36:20.815Z,8.20
2022-12-22T23:39:06.612Z,8.20
2022-12-22T23:41:52.358Z,8.20
2022-12-22T23:44:37.971Z,8.20
2022-12-22T23:50:09.826Z,8.20
2022-12-22T23:52:55.382Z,8.30
2022-12-22T23:55:44.993Z,8.30
2022-12-22T23:58:30.576Z,8.20
